Aérodrome :
LOGIN :

S'inscrire | Disclaimer

   EN    FR    IT 

 










Légende :    VFR   VFR Marginal   IFR   IFR Intensif   IFR Très Intensif
Visi : 
Plafond : 
>= 8 km
>= 3000ft
5 à 8 km
1000 à 3000 ft
1500m à 5 km
500 à 1000 ft
800 à 1500m
200 à 500 ft
< 800m
< 200 ft
Symboles :   Orages  Brouillard  Fortes neiges  Fortes précipitations  Vent > 20 kt
SIGMETs :   Divers  Orages  Givrage  Turbulence  Onde Orograph.  Cendres Volcan.







- Altitude de l'aérodrome : 1302 ft
- Code IATA : GNB
- Voir les cartes d'approche


LFLS - Grenoble / St. Geoirs

DERNIER METAR :
  • 232130Z AUTO 09006KT CAVOK 03/02 Q1029

METARs EXPIRÉS :
  • 232100Z AUTO 11005KT CAVOK 03/01 Q1029
  • 232030Z AUTO 11004KT CAVOK 03/02 Q1028
  • 232000Z AUTO 09003KT CAVOK 03/01 Q1028 NOSIG
  • 231930Z AUTO 07004KT 9999 FEW068 04/02 Q1028 NOSIG
  • 231900Z AUTO 09004KT 9999 BKN068 BKN082 05/03 Q1028 NOSIG

TAF TAF LFLS
Valide du 23 à 15h jusqu'au 24 à 15h UTC


231400Z 2315/2415 02006KT CAVOK
BECMG 2317/2320 09005KT
PROB30
TEMPO 2400/2407 4000 MIFG
BECMG 2409/2412 25006KT
ATIS : +33 4 76 65 55 89
Pas de NOTAMs connus pour ce terrain.



MET'MAP, la Météo Aéronautique d'un coup d'oeil ! - Copyright ORBIFLY Décembre 2007 - Disclaimer

ORBIFLY MET'MAP TEAM :

Programmation & Développement : Alexandra Zaïnal
Conception & Développement : Baudouin d'Aumeries
Co-Programmation & Développement : Marc-Olivier Méhu
Soutien technique & logistique : Manuel Goepfert

Contact : metmap@orbifly.com




SOURCES & CREDITS :

   NOAA